AirNav   Pilot Hours Calculator
 
 1044 users online  

89D Kelleys Island Land Field Airport
Kelleys Island, Ohio, USA

GOING TO KELLEYS ISLAND?


FAA INFORMATION EFFECTIVE 26 JANUARY 2023

Location

FAA Identifier: 89D
Lat/Long: 41-36-11.4550N 082-41-06.1950W
41-36.190917N 082-41.103250W
41.6031819,-82.6850542
(estimated)
Elevation: 598.2 ft. / 182.3 m (surveyed)
Variation: 07W (2000)
From city: 1 mile NE of KELLEYS ISLAND, OH
Time zone: UTC -5 (UTC -4 during Daylight Saving Time)
Zip code: 43438

Airport Operations

Airport use: Open to the public
Activation date: 05/1949
Control tower: no
ARTCC: CLEVELAND CENTER
FSS: CLEVELAND FLIGHT SERVICE STATION
NOTAMs facility: CLE (NOTAM-D service available)
Attendance: UNATNDD
Wind indicator: lighted
Segmented circle: no
Lights: SS-SR
Landing fee: yes

Airport Communications

CTAF: 122.9
WX AWOS-3 at PCW (10 nm SW): 118.775 (419-734-9955)

Nearby radio navigation aids

VOR radial/distance  VOR name  Freq  Var
DJBr307/27.7DRYER VOR/DME113.6005W

 
NDB name  Hdg/Dist  Freq  Var  ID
PORT CLINTON065/9.742307WPCW .--. -.-. .--
GROSSE ILE152/36.541907WRYS .-. -.-- ...
TIFFIN043/38.726905WTII - .. ..

Airport Services

Parking: tiedowns
Airframe service: NONE
Powerplant service: NONE
Bottled oxygen: NONE
Bulk oxygen: NONE

Runway Information

Runway 9/27

Dimensions: 2202 x 50 ft. / 671 x 15 m
Surface: asphalt, in good condition
Runway edge lights: low intensity
RUNWAY 9  RUNWAY 27
Latitude: 41-36.198333N41-36.183500N
Longitude: 082-41.344500W082-40.862000W
Elevation: 598.2 ft.578.9 ft.
Traffic pattern: leftleft
Runway heading: 099 magnetic, 092 true279 magnetic, 272 true
Displaced threshold: 200 ft.no
Markings: basic, in fair conditionbasic, in fair condition
Runway end identifier lights: nono
Touchdown point: yes, no lightsyes, no lights
Obstructions: 54 ft. trees, 394 ft. from runway, 139 ft. right of centerline, 3:1 slope to clear
10 FT ROAD, 12 FT DIST, 125 FT L/R.
3 ft. fence, 201 ft. from runway, 100 ft. left of centerline
+10 FT ROAD, 0-92 FT DIST, 0-125 FT L; +4 FT PROPANE TANK, 104-120 FT DIST, 87-92 FT L; +18 FT HOUSE, 102-200 FT DIST, 94-125 FT L; +12 FT TREES, 106-136 FT DIST, 80 FT L.

Airport Ownership and Management from official FAA records

Ownership: Publicly-owned
Owner: VILLAGE OF KELLEYS ISLAND
121 ADDISON ST BOX 469
KELLEYS ISLAND, OH 43438
Phone 419-746-2535
UNMON ARPT TRML 419-746-2228.
Manager: ROBERT QUINN
121 ADDISON ST BOX 469
KELLEYS ISLAND, OH 43438
Phone 419-503-0663

Airport Operational Statistics

Aircraft based on the field: 2
Single engine airplanes: 2
    
Aircraft operations: avg 70/day *
37% transient general aviation
34% air taxi
29% local general aviation
* for 12-month period ending 27 September 2021

Additional Remarks

DEER ON & INVOF ARPT.
FOR CD CTC CLEVELAND APCH AT 216-352-2323.

Instrument Procedures

There are no published instrument procedures at 89D.

Some nearby airports with instrument procedures:

KPCW - Erie-Ottawa International Airport (10 nm SW)
5A1 - Norwalk-Huron County Airport (22 nm S)
S24 - Sandusky County Regional Airport (24 nm SW)
14G - Fremont Airport (27 nm SW)
KLPR - Lorain County Regional Airport (28 nm SE)
 
Loc | Ops | Rwys | IFR | FBO | Links
Com | Nav | Svcs | Stats | Notes
Area around 89D (Kelleys Island Land Field Airport)
 
Road maps at: MapQuest Bing Google
 
Aerial photo
WARNING: Photo may not be current or correct
Aerial photo of 89D (Kelleys Island Land Field Airport)
Photo by David Newcomer
Photo taken 22-Sep-2017
from 2,000' AGL looking west.

Do you have a better or more recent aerial photo of Kelleys Island Land Field Airport that you would like to share? If so, please send us your photo.

 
Sectional chart

 
Airport distance calculator
Flying to Kelleys Island Land Field Airport? Find the distance to fly.

From to 89D

Sunrise and sunset
Times for 26-Jan-2023
 Local
(UTC-5)
 Zulu
(UTC)
Morning civil twilight07:1912:19
Sunrise07:4912:49
Sunset17:3822:38
Evening civil twilight18:0723:07

Current date and time
Zulu (UTC)  27-Jan-2023 01:55:29
Local (UTC-5)  26-Jan-2023 20:55:29
 
METAR
KPCW 
10nm SW 
270135Z AUTO 26024G29KT 4SM -SN OVC014 M04/M04 A2995 RMK AO2
TAF
KCLE 
39nm E 
262057Z 2621/2724 28007KT 3SM -SN SCT012 BKN025 TEMPO 2621/2623 1SM -SN OVC015 FM270100 23014KT 5SM -SN OVC010 FM270300 24012G20KT P6SM VCSH OVC015 FM271800 21012G20KT P6SM SCT020
CYQG 
42nm N 
261740Z 2618/2718 25010KT 2SM -SHSN OVC015 TEMPO 2618/2624 6SM -SN OVC025 PROB30 2618/2624 1 1/2SM -SHSN OVC010 FM270000 22008KT 1 1/2SM -SHSN OVC010 TEMPO 2700/2708 6SM -SN OVC020 PROB30 2700/2708 3/4SM -SHSN VV008 FM270800 24015KT 6SM -SHSN OVC015 RMK FCST BASED ON AUTO OBS. NXT FCST BY 270000Z
KDTW 
48nm NW 
262113Z 2621/2724 25007KT 3SM -SHSN BKN015 OVC040 TEMPO 2623/2703 1 1/2SM -SN OVC007 FM270600 24007KT P6SM BKN025 OVC040 FM271400 20016G26KT P6SM SCT030 BKN150 FM272000 20018G28KT 3SM -SN OVC015
KMFD 
48nm S 
262106Z 2621/2718 25012G22KT 3SM -SHSN BKN018 TEMPO 2621/2623 1SM -SN BKN009 FM270000 24010G20KT 6SM -SHSN OVC012 FM270800 23012KT P6SM OVC010 FM271600 20014G22KT P6SM SCT020
NOTAMs
Click for the latest NOTAMs
NOTAMs are issued by the DoD/FAA and will open in a separate window not controlled by AirNav.

 

 
 

Would you like to see your business listed on this page?

 If your business provides an interesting product or service to pilots, flight crews, aircraft, or users of the Kelleys Island Land Field Airport, you should consider listing it here.  To start the listing process, click on the button below
 
Add a business
 

Other Pages about Kelleys Island Land Field Airport

Update a link
 
Copyright © AirNav, LLC. All rights reserved. Privacy Policy  Contact